Time,TemperatureF,DewpointF,PressureIn,WindDirection,WindDirectionDegrees,WindSpeedMPH,WindSpeedGustMPH,Humidity,HourlyPrecipIn,Conditions,Clouds,dailyrainin,SoftwareType,DateUTC
2013-08-27 00:18:00,71.0,63.0,30.01,SW,234,4.0,5.0,75,0.00,,,0.00,,2013-08-27 04:18:00,
2013-08-27 00:54:00,70.0,62.0,30.00,SW,225,3.0,4.0,76,0.00,,,0.00,,2013-08-27 04:54:00,
2013-08-27 01:23:00,70.0,62.0,29.99,SW,228,3.0,4.0,77,0.00,,,0.00,,2013-08-27 05:23:00,
2013-08-27 01:52:00,70.0,62.0,30.00,SW,231,2.0,3.0,77,0.00,,,0.00,,2013-08-27 05:52:00,
2013-08-27 02:22:00,69.0,62.0,29.98,SSW,200,2.0,3.0,79,0.00,,,0.00,,2013-08-27 06:22:00,
2013-08-27 02:52:00,68.0,62.0,29.98,SSW,193,2.0,2.0,82,0.00,,,0.00,,2013-08-27 06:52:00,
2013-08-27 03:12:00,68.0,63.0,29.98,South,188,1.0,2.0,83,0.00,,,0.00,,2013-08-27 07:12:00,
2013-08-27 03:22:00,68.0,63.0,29.97,SSW,202,2.0,3.0,84,0.00,,,0.00,,2013-08-27 07:22:00,
2013-08-27 03:52:00,68.0,62.0,29.97,SSW,208,2.0,3.0,82,0.00,,,0.00,,2013-08-27 07:52:00,
2013-08-27 04:22:00,68.0,62.0,29.96,WSW,238,2.0,3.0,82,0.00,,,0.00,,2013-08-27 08:22:00,
2013-08-27 04:52:00,69.0,63.0,29.96,WSW,250,2.0,2.0,80,0.00,,,0.00,,2013-08-27 08:52:00,
2013-08-27 05:21:00,70.0,62.0,29.95,NNW,329,0.0,1.0,77,0.00,,,0.00,,2013-08-27 09:21:00,
2013-08-27 05:54:00,68.0,62.0,29.95,WNW,287,2.0,2.0,81,0.00,,,0.00,,2013-08-27 09:54:00,
2013-08-27 06:05:00,68.0,62.0,29.95,WNW,287,2.0,2.0,81,0.00,,,0.00,,2013-08-27 10:05:00,
2013-08-27 06:10:00,69.0,62.0,29.95,North,7,1.0,2.0,79,0.00,,,0.00,,2013-08-27 10:10:00,
2013-08-27 06:25:00,69.0,62.0,29.95,WNW,294,2.0,4.0,79,0.00,,,0.00,,2013-08-27 10:25:00,
2013-08-27 06:53:00,69.0,62.0,29.95,North,7,1.0,2.0,79,0.00,,,0.00,,2013-08-27 10:53:00,
2013-08-27 07:03:00,69.0,62.0,29.95,North,7,1.0,2.0,79,0.00,,,0.00,,2013-08-27 11:03:00,
2013-08-27 07:52:00,70.0,63.0,29.97,NW,322,3.0,4.0,78,0.00,,,0.00,,2013-08-27 11:52:00,
2013-08-27 08:12:00,71.0,63.0,29.97,NW,314,3.0,6.0,76,0.00,,,0.00,,2013-08-27 12:12:00,
2013-08-27 08:21:00,71.0,63.0,29.97,NW,314,3.0,6.0,76,0.00,,,0.00,,2013-08-27 12:21:00,
2013-08-27 08:52:00,73.0,64.0,29.96,NW,320,5.0,7.0,73,0.00,,,0.00,,2013-08-27 12:52:00,
2013-08-27 09:11:00,73.0,64.0,29.96,NW,326,4.0,7.0,73,0.00,,,0.00,,2013-08-27 13:11:00,
2013-08-27 09:22:00,73.0,64.0,29.96,NW,326,4.0,7.0,73,0.00,,,0.00,,2013-08-27 13:22:00,
2013-08-27 09:32:00,73.0,64.0,29.96,NW,326,4.0,7.0,73,0.00,,,0.00,,2013-08-27 13:32:00,
2013-08-27 12:28:00,77.0,63.0,29.98,North,354,6.0,9.0,63,0.00,,,0.00,,2013-08-27 16:28:00,
2013-08-27 12:55:00,80.0,65.0,29.97,North,8,4.0,9.0,60,0.00,,,0.00,,2013-08-27 16:55:00,
2013-08-27 13:13:00,80.0,65.0,29.96,North,350,3.0,6.0,60,0.00,,,0.00,,2013-08-27 17:13:00,
2013-08-27 13:23:00,80.0,65.0,29.96,North,350,3.0,6.0,60,0.00,,,0.00,,2013-08-27 17:23:00,
2013-08-27 13:36:00,80.0,65.0,29.96,North,350,3.0,6.0,60,0.00,,,0.00,,2013-08-27 17:36:00,
2013-08-27 15:52:00,83.0,64.0,29.92,NNW,332,2.0,3.0,53,0.00,,,0.00,,2013-08-27 19:52:00,
2013-08-27 16:02:00,83.0,64.0,29.92,NNW,332,2.0,3.0,53,0.00,,,0.00,,2013-08-27 20:02:00,
2013-08-27 16:12:00,83.0,64.0,29.92,NNW,332,2.0,3.0,53,0.00,,,0.00,,2013-08-27 20:12:00,